Terminal Aerodrome Forecast
Issued by NWS Shreveport, LA

Home | Current Version | Previous Version | Text Only | Print | Product List | Glossary On
Versions: 1 2 3 4 5 6 7 8 9 10 11 12 13 14 15 16 17 18 19 20 21 22
000
FTUS44 KSHV 161411 AAA
TAFMLU
TAF AMD
KMLU 161411Z 1614/1712 20008KT P6SM SCT008 BKN015
      TEMPO 1614/1615 4SM BR OVC005
     FM161600 21007KT P6SM SCT035
      TEMPO 1616/1618 BKN020
     FM162100 20009KT P6SM VCTS SCT040CB SCT250
     FM170100 17005KT P6SM SCT150 SCT250
     FM170900 20005KT P6SM OVC010=

USA.gov is the U.S. government's official web portal to all federal, state and local government web resources and services.